EWG61G EGKK-LGKF
Flight info
| Callsign | EWG61G |
|---|---|
| Flight time | 2h 59m |
| Altitude | 35000 |
| Route | SFD Y47 BENBO UL612 OGULO DCT OKASI DCT OKEKO DCT MOU DCT MADIV DCT MOKIP DCT TUFTA DCT KOGAS/N0449F370 DCT MEDAM DCT NITAM DCT MOGBO DCT ELB DCT MEDAL DCT RAVAL DCT LUNAK DCT ELVIN DCT RIFFI DCT MALOG DCT EDOPA DCT PEVIR DCT DELER DCT AGNIS DCT CRN DCT ADREN DCT TOMGI DCT RUTOM UM601 LASKO |
| Aircraft | A320/M-SDE3FGHIRWY/LB1 |
Departure
| Time | 2026-04-25 12:41 |
|---|---|
| Airport | London Gatwick Airport (EGKK) |
Arrival
| Time | 2026-04-25 15:40 |
|---|---|
| Airport | Kefallinia Airport (LGKF) |
| Time | Latitude | Longitude | Altitude | Speed | Heading |
|---|---|---|---|---|---|
| 2026-04-25 12:04 | 51.15472 | -0.17148 | 212 ft | 0 kts | 36° |
| 2026-04-25 12:27 | 51.15460 | -0.17162 | 216 ft | 2 kts | 36° |
| 2026-04-25 12:27 | 51.15446 | -0.17176 | 213 ft | 2 kts | 353° |
| 2026-04-25 12:27 | 51.15429 | -0.17174 | 212 ft | 2 kts | 334° |
| 2026-04-25 12:28 | 51.15414 | -0.17159 | 214 ft | 2 kts | 311° |
| 2026-04-25 12:28 | 51.15405 | -0.17137 | 214 ft | 2 kts | 286° |
| 2026-04-25 12:28 | 51.15404 | -0.17125 | 215 ft | 0 kts | 261° |
| 2026-04-25 12:32 | 51.15400 | -0.17141 | 214 ft | 3 kts | 249° |
| 2026-04-25 12:32 | 51.15390 | -0.17179 | 206 ft | 9 kts | 249° |
| 2026-04-25 12:32 | 51.15363 | -0.17318 | 207 ft | 9 kts | 254° |
| 2026-04-25 12:32 | 51.15326 | -0.17371 | 207 ft | 7 kts | 206° |
| 2026-04-25 12:33 | 51.15300 | -0.17436 | 206 ft | 9 kts | 256° |
| 2026-04-25 12:33 | 51.15288 | -0.17535 | 203 ft | 9 kts | 258° |
| 2026-04-25 12:33 | 51.15277 | -0.17620 | 203 ft | 7 kts | 258° |
| 2026-04-25 12:33 | 51.15268 | -0.17690 | 207 ft | 6 kts | 257° |
| 2026-04-25 12:34 | 51.15251 | -0.17811 | 204 ft | 15 kts | 257° |
| 2026-04-25 12:34 | 51.15227 | -0.17982 | 212 ft | 17 kts | 257° |
| 2026-04-25 12:34 | 51.15201 | -0.18171 | 215 ft | 18 kts | 258° |
| 2026-04-25 12:34 | 51.15188 | -0.18279 | 213 ft | 13 kts | 266° |
| 2026-04-25 12:35 | 51.15159 | -0.18521 | 213 ft | 21 kts | 257° |
| 2026-04-25 12:35 | 51.15127 | -0.18759 | 212 ft | 22 kts | 257° |
| 2026-04-25 12:35 | 51.15092 | -0.19005 | 209 ft | 23 kts | 257° |
| 2026-04-25 12:35 | 51.15058 | -0.19262 | 204 ft | 24 kts | 258° |
| 2026-04-25 12:36 | 51.15020 | -0.19531 | 204 ft | 25 kts | 257° |
| 2026-04-25 12:36 | 51.14983 | -0.19803 | 209 ft | 26 kts | 258° |
| 2026-04-25 12:36 | 51.14943 | -0.20090 | 203 ft | 27 kts | 257° |
| 2026-04-25 12:36 | 51.14901 | -0.20387 | 203 ft | 28 kts | 257° |
| 2026-04-25 12:37 | 51.14860 | -0.20690 | 206 ft | 27 kts | 258° |
| 2026-04-25 12:37 | 51.14821 | -0.20972 | 208 ft | 26 kts | 258° |
| 2026-04-25 12:37 | 51.14784 | -0.21184 | 206 ft | 14 kts | 249° |
| 2026-04-25 12:37 | 51.14763 | -0.21331 | 204 ft | 18 kts | 257° |
| 2026-04-25 12:38 | 51.14691 | -0.21395 | 210 ft | 12 kts | 160° |
| 2026-04-25 12:38 | 51.14685 | -0.21302 | 207 ft | 4 kts | 78° |
| 2026-04-25 12:38 | 51.14689 | -0.21268 | 204 ft | 3 kts | 79° |
| 2026-04-25 12:38 | 51.14696 | -0.21211 | 204 ft | 5 kts | 78° |
| 2026-04-25 12:39 | 51.14710 | -0.21109 | 204 ft | 11 kts | 76° |
| 2026-04-25 12:39 | 51.14695 | -0.20983 | 213 ft | 10 kts | 148° |
| 2026-04-25 12:39 | 51.14680 | -0.20976 | 205 ft | 6 kts | 167° |
| 2026-04-25 12:39 | 51.14583 | -0.20897 | 215 ft | 19 kts | 126° |
| 2026-04-25 12:40 | 51.14589 | -0.20663 | 212 ft | 33 kts | 78° |
| 2026-04-25 12:40 | 51.14688 | -0.19954 | 214 ft | 99 kts | 77° |
| 2026-04-25 12:40 | 51.14879 | -0.18566 | 206 ft | 152 kts | 77° |
| 2026-04-25 12:40 | 51.15044 | -0.17391 | 322 ft | 169 kts | 77° |
| 2026-04-25 12:41 | 51.15295 | -0.15587 | 1041 ft | 166 kts | 77° |
| 2026-04-25 12:41 | 51.15546 | -0.13748 | 1557 ft | 178 kts | 77° |
| 2026-04-25 12:41 | 51.15824 | -0.11702 | 1859 ft | 200 kts | 77° |
| 2026-04-25 12:41 | 51.16135 | -0.09402 | 2164 ft | 223 kts | 80° |
| 2026-04-25 12:42 | 51.15987 | -0.06933 | 2845 ft | 231 kts | 117° |
| 2026-04-25 12:42 | 51.15340 | -0.05566 | 3217 ft | 242 kts | 142° |
| 2026-04-25 12:42 | 51.13186 | -0.04072 | 3990 ft | 263 kts | 167° |
| 2026-04-25 12:42 | 51.11370 | -0.03538 | 4840 ft | 267 kts | 172° |
| 2026-04-25 12:43 | 51.09519 | -0.03110 | 5709 ft | 271 kts | 171° |
| 2026-04-25 12:43 | 51.07664 | -0.02533 | 6576 ft | 274 kts | 167° |
| 2026-04-25 12:43 | 51.03913 | -0.00957 | 8267 ft | 281 kts | 164° |
| 2026-04-25 12:44 | 51.02023 | -0.00069 | 9076 ft | 285 kts | 163° |
| 2026-04-25 12:44 | 51.00106 | 0.00798 | 9861 ft | 288 kts | 166° |
| 2026-04-25 12:44 | 50.95990 | 0.02245 | 10657 ft | 325 kts | 169° |
| 2026-04-25 12:45 | 50.93730 | 0.02970 | 11156 ft | 336 kts | 169° |
| 2026-04-25 12:45 | 50.91441 | 0.03697 | 11832 ft | 341 kts | 169° |
| 2026-04-25 12:45 | 50.86738 | 0.05202 | 13216 ft | 348 kts | 169° |
| 2026-04-25 12:46 | 50.84350 | 0.05967 | 13878 ft | 352 kts | 169° |
| 2026-04-25 12:46 | 50.81940 | 0.06742 | 14514 ft | 355 kts | 169° |
| 2026-04-25 12:46 | 50.79474 | 0.07536 | 15153 ft | 359 kts | 169° |
| 2026-04-25 12:46 | 50.77012 | 0.08331 | 15778 ft | 362 kts | 168° |
| 2026-04-25 12:47 | 50.74567 | 0.09123 | 16387 ft | 365 kts | 168° |
| 2026-04-25 12:47 | 50.72070 | 0.09935 | 16960 ft | 368 kts | 168° |
| 2026-04-25 12:47 | 50.69546 | 0.10755 | 17537 ft | 371 kts | 168° |
| 2026-04-25 12:47 | 50.67001 | 0.11581 | 18095 ft | 375 kts | 168° |
| 2026-04-25 12:48 | 50.64441 | 0.12414 | 18637 ft | 378 kts | 168° |
| 2026-04-25 12:48 | 50.61854 | 0.13249 | 19169 ft | 381 kts | 169° |
| 2026-04-25 12:48 | 50.59246 | 0.14084 | 19689 ft | 384 kts | 169° |
| 2026-04-25 12:48 | 50.56615 | 0.14926 | 20197 ft | 387 kts | 169° |
| 2026-04-25 12:49 | 50.53968 | 0.15774 | 20689 ft | 390 kts | 168° |
| 2026-04-25 12:49 | 50.51302 | 0.16632 | 21161 ft | 392 kts | 168° |
| 2026-04-25 12:49 | 50.48617 | 0.17496 | 21636 ft | 395 kts | 168° |
| 2026-04-25 12:49 | 50.45916 | 0.18363 | 22089 ft | 398 kts | 168° |
| 2026-04-25 12:50 | 50.43194 | 0.19234 | 22536 ft | 400 kts | 168° |
| 2026-04-25 12:50 | 50.40455 | 0.20110 | 22967 ft | 403 kts | 168° |
| 2026-04-25 12:50 | 50.37661 | 0.21002 | 23395 ft | 406 kts | 169° |
| 2026-04-25 12:50 | 50.34924 | 0.21873 | 23795 ft | 408 kts | 169° |
| 2026-04-25 12:51 | 50.32133 | 0.22756 | 24197 ft | 411 kts | 169° |
| 2026-04-25 12:51 | 50.29319 | 0.23648 | 24592 ft | 413 kts | 169° |
| 2026-04-25 12:51 | 50.26487 | 0.24546 | 24976 ft | 416 kts | 169° |
| 2026-04-25 12:51 | 50.23644 | 0.25453 | 25344 ft | 418 kts | 168° |
| 2026-04-25 12:52 | 50.20849 | 0.26754 | 25703 ft | 420 kts | 158° |
| 2026-04-25 12:52 | 50.18217 | 0.28782 | 26045 ft | 423 kts | 148° |
| 2026-04-25 12:52 | 50.15754 | 0.31308 | 26390 ft | 425 kts | 146° |
| 2026-04-25 12:52 | 50.13283 | 0.33866 | 26733 ft | 427 kts | 147° |
| 2026-04-25 12:53 | 50.10790 | 0.36430 | 26969 ft | 429 kts | 147° |
| 2026-04-25 12:53 | 50.08297 | 0.38979 | 27007 ft | 429 kts | 147° |
| 2026-04-25 12:53 | 50.05798 | 0.41526 | 27067 ft | 431 kts | 147° |
| 2026-04-25 12:53 | 50.03284 | 0.44084 | 27421 ft | 432 kts | 147° |
| 2026-04-25 12:54 | 50.00763 | 0.46646 | 27759 ft | 434 kts | 147° |
| 2026-04-25 12:54 | 49.98223 | 0.49228 | 28083 ft | 436 kts | 147° |
| 2026-04-25 12:54 | 49.95673 | 0.51822 | 28395 ft | 439 kts | 147° |
| 2026-04-25 12:54 | 49.93115 | 0.54431 | 28710 ft | 441 kts | 147° |
| 2026-04-25 12:55 | 49.90545 | 0.57045 | 28997 ft | 443 kts | 147° |
| 2026-04-25 12:55 | 49.88833 | 0.58781 | 29180 ft | 444 kts | 147° |
| 2026-04-25 12:55 | 49.85389 | 0.62356 | 29552 ft | 447 kts | 142° |
| 2026-04-25 12:55 | 49.82964 | 0.65392 | 29810 ft | 449 kts | 141° |
| 2026-04-25 12:56 | 49.80571 | 0.68415 | 30067 ft | 451 kts | 141° |
| 2026-04-25 12:56 | 49.78133 | 0.71490 | 30317 ft | 453 kts | 141° |
| 2026-04-25 12:56 | 49.75688 | 0.74569 | 30561 ft | 454 kts | 141° |
| 2026-04-25 12:56 | 49.73223 | 0.77669 | 30808 ft | 456 kts | 141° |
| 2026-04-25 12:57 | 49.70751 | 0.80764 | 31042 ft | 458 kts | 141° |
| 2026-04-25 12:57 | 49.68277 | 0.83856 | 31342 ft | 458 kts | 141° |
| 2026-04-25 12:57 | 49.65800 | 0.86944 | 31668 ft | 457 kts | 141° |
| 2026-04-25 12:57 | 49.63329 | 0.90027 | 32007 ft | 456 kts | 141° |
| 2026-04-25 12:58 | 49.60861 | 0.93100 | 32327 ft | 456 kts | 141° |
| 2026-04-25 12:58 | 49.58397 | 0.96166 | 32649 ft | 455 kts | 141° |
| 2026-04-25 12:58 | 49.55937 | 0.99230 | 32964 ft | 454 kts | 141° |
| 2026-04-25 12:58 | 49.53483 | 1.02282 | 33274 ft | 453 kts | 141° |
| 2026-04-25 12:59 | 49.51028 | 1.05333 | 33580 ft | 453 kts | 141° |
| 2026-04-25 12:59 | 49.48580 | 1.08373 | 33878 ft | 452 kts | 141° |
| 2026-04-25 12:59 | 49.46129 | 1.11407 | 34165 ft | 452 kts | 141° |
| 2026-04-25 12:59 | 49.43679 | 1.14425 | 34455 ft | 451 kts | 141° |
| 2026-04-25 13:00 | 49.41238 | 1.17427 | 34747 ft | 450 kts | 141° |
| 2026-04-25 13:00 | 49.39620 | 1.19420 | 34925 ft | 450 kts | 141° |
| 2026-04-25 13:00 | 49.36384 | 1.23414 | 35276 ft | 450 kts | 141° |
| 2026-04-25 13:00 | 49.33944 | 1.26421 | 35524 ft | 449 kts | 141° |
| 2026-04-25 13:01 | 49.31513 | 1.29411 | 35784 ft | 448 kts | 141° |
| 2026-04-25 13:01 | 49.29078 | 1.32398 | 36010 ft | 448 kts | 141° |
| 2026-04-25 13:01 | 49.26646 | 1.35373 | 36230 ft | 447 kts | 141° |
| 2026-04-25 13:01 | 49.24213 | 1.38344 | 36440 ft | 447 kts | 141° |
| 2026-04-25 13:02 | 49.21784 | 1.41305 | 36651 ft | 447 kts | 141° |
| 2026-04-25 13:02 | 49.19353 | 1.44267 | 36836 ft | 447 kts | 141° |
| 2026-04-25 13:02 | 49.16919 | 1.47229 | 36977 ft | 447 kts | 141° |
| 2026-04-25 13:02 | 49.14483 | 1.50192 | 37011 ft | 447 kts | 141° |
| 2026-04-25 13:03 | 49.09625 | 1.56100 | 37009 ft | 446 kts | 142° |
| 2026-04-25 13:03 | 49.04763 | 1.61975 | 37009 ft | 445 kts | 142° |
| 2026-04-25 13:04 | 48.99906 | 1.67841 | 37009 ft | 445 kts | 142° |
| 2026-04-25 13:04 | 48.95046 | 1.73700 | 37009 ft | 445 kts | 142° |
| 2026-04-25 13:05 | 48.90179 | 1.79547 | 37008 ft | 446 kts | 142° |
| 2026-04-25 13:05 | 48.85312 | 1.85393 | 37010 ft | 446 kts | 142° |
| 2026-04-25 13:06 | 48.80432 | 1.91220 | 37012 ft | 446 kts | 142° |
| 2026-04-25 13:06 | 48.75548 | 1.97034 | 37013 ft | 446 kts | 142° |
| 2026-04-25 13:07 | 48.70695 | 2.02816 | 37015 ft | 447 kts | 142° |
| 2026-04-25 13:07 | 48.65807 | 2.08625 | 37017 ft | 447 kts | 142° |
| 2026-04-25 13:08 | 48.60904 | 2.14412 | 37020 ft | 447 kts | 142° |
| 2026-04-25 13:08 | 48.56086 | 2.20349 | 37023 ft | 447 kts | 135° |
| 2026-04-25 13:09 | 48.51711 | 2.27003 | 37022 ft | 447 kts | 135° |
| 2026-04-25 13:09 | 48.47337 | 2.33660 | 37023 ft | 447 kts | 135° |
| 2026-04-25 13:10 | 48.42953 | 2.40296 | 37023 ft | 447 kts | 135° |
| 2026-04-25 13:10 | 48.38561 | 2.46917 | 37024 ft | 447 kts | 135° |
| 2026-04-25 13:11 | 48.34158 | 2.53531 | 37025 ft | 447 kts | 135° |
| 2026-04-25 13:11 | 48.29760 | 2.60060 | 37023 ft | 447 kts | 139° |
| 2026-04-25 13:12 | 48.24551 | 2.65064 | 37024 ft | 446 kts | 156° |
| 2026-04-25 13:12 | 48.19832 | 2.68345 | 37023 ft | 446 kts | 154° |
| 2026-04-25 13:13 | 48.13468 | 2.73453 | 37024 ft | 446 kts | 151° |
| 2026-04-25 13:13 | 48.08027 | 2.77944 | 37024 ft | 446 kts | 155° |
| 2026-04-25 13:14 | 48.02335 | 2.81674 | 37024 ft | 446 kts | 157° |
| 2026-04-25 13:14 | 47.96608 | 2.85273 | 37024 ft | 446 kts | 158° |
| 2026-04-25 13:15 | 47.90876 | 2.88870 | 37025 ft | 447 kts | 157° |
| 2026-04-25 13:15 | 47.85153 | 2.92493 | 37024 ft | 447 kts | 157° |
| 2026-04-25 13:16 | 47.79434 | 2.96110 | 37024 ft | 447 kts | 157° |
| 2026-04-25 13:16 | 47.73712 | 2.99720 | 37024 ft | 447 kts | 157° |
| 2026-04-25 13:17 | 47.67986 | 3.03322 | 37024 ft | 447 kts | 157° |
| 2026-04-25 13:17 | 47.62262 | 3.06911 | 37023 ft | 447 kts | 157° |
| 2026-04-25 13:18 | 47.56536 | 3.10497 | 37022 ft | 447 kts | 157° |
| 2026-04-25 13:18 | 47.50801 | 3.14070 | 37022 ft | 447 kts | 157° |
| 2026-04-25 13:19 | 47.45106 | 3.17608 | 37020 ft | 447 kts | 157° |
| 2026-04-25 13:19 | 47.41271 | 3.19992 | 37022 ft | 447 kts | 157° |
| 2026-04-25 13:20 | 47.33633 | 3.24725 | 37028 ft | 447 kts | 157° |
| 2026-04-25 13:20 | 47.27890 | 3.28275 | 37023 ft | 447 kts | 157° |
| 2026-04-25 13:21 | 47.22153 | 3.31809 | 37022 ft | 447 kts | 158° |
| 2026-04-25 13:21 | 47.16419 | 3.35332 | 37021 ft | 447 kts | 158° |
| 2026-04-25 13:22 | 47.11609 | 3.38286 | 37018 ft | 447 kts | 157° |
| 2026-04-25 13:23 | 47.03048 | 3.43535 | 37016 ft | 447 kts | 158° |
| 2026-04-25 13:23 | 46.97302 | 3.47039 | 37019 ft | 447 kts | 158° |
| 2026-04-25 13:24 | 46.91521 | 3.50550 | 37021 ft | 447 kts | 158° |
| 2026-04-25 13:24 | 46.85812 | 3.54012 | 37022 ft | 447 kts | 158° |
| 2026-04-25 13:25 | 46.80069 | 3.57494 | 37023 ft | 447 kts | 158° |
| 2026-04-25 13:25 | 46.74580 | 3.61673 | 37023 ft | 446 kts | 142° |
| 2026-04-25 13:25 | 46.72306 | 3.64753 | 37021 ft | 446 kts | 130° |
| 2026-04-25 13:26 | 46.70491 | 3.68396 | 37017 ft | 445 kts | 120° |
| 2026-04-25 13:26 | 46.69183 | 3.72481 | 37011 ft | 445 kts | 108° |
| 2026-04-25 13:26 | 46.68369 | 3.76826 | 37005 ft | 445 kts | 103° |
| 2026-04-25 13:27 | 46.66892 | 3.85593 | 36999 ft | 446 kts | 104° |
| 2026-04-25 13:27 | 46.65386 | 3.94364 | 36998 ft | 446 kts | 104° |
| 2026-04-25 13:28 | 46.63870 | 4.03131 | 36998 ft | 447 kts | 104° |
| 2026-04-25 13:28 | 46.62346 | 4.11900 | 37001 ft | 447 kts | 104° |
| 2026-04-25 13:29 | 46.60823 | 4.20598 | 37002 ft | 447 kts | 104° |
| 2026-04-25 13:29 | 46.59286 | 4.29358 | 37004 ft | 447 kts | 104° |
| 2026-04-25 13:30 | 46.56957 | 4.42491 | 37002 ft | 447 kts | 104° |
| 2026-04-25 13:31 | 46.54628 | 4.55608 | 37004 ft | 447 kts | 104° |
| 2026-04-25 13:31 | 46.53065 | 4.64342 | 37007 ft | 447 kts | 104° |
| 2026-04-25 13:32 | 46.51495 | 4.73083 | 37009 ft | 447 kts | 104° |
| 2026-04-25 13:32 | 46.49921 | 4.81809 | 37007 ft | 447 kts | 104° |
| 2026-04-25 13:33 | 46.48337 | 4.90538 | 37010 ft | 447 kts | 105° |
| 2026-04-25 13:33 | 46.46745 | 4.99269 | 37013 ft | 447 kts | 105° |
| 2026-04-25 13:34 | 46.45158 | 5.07925 | 37014 ft | 447 kts | 105° |
| 2026-04-25 13:34 | 46.43557 | 5.16633 | 37014 ft | 447 kts | 105° |
| 2026-04-25 13:35 | 46.41954 | 5.25344 | 37015 ft | 447 kts | 105° |
| 2026-04-25 13:35 | 46.40338 | 5.34042 | 37015 ft | 447 kts | 105° |
| 2026-04-25 13:36 | 46.38152 | 5.42436 | 37007 ft | 446 kts | 120° |
| 2026-04-25 13:36 | 46.34404 | 5.49572 | 37001 ft | 446 kts | 130° |
| 2026-04-25 13:37 | 46.30372 | 5.56419 | 36998 ft | 447 kts | 130° |
| 2026-04-25 13:37 | 46.26341 | 5.63255 | 36996 ft | 447 kts | 130° |
| 2026-04-25 13:38 | 46.22297 | 5.70089 | 36993 ft | 447 kts | 130° |
| 2026-04-25 13:38 | 46.18242 | 5.76911 | 36992 ft | 448 kts | 131° |
| 2026-04-25 13:39 | 46.14168 | 5.83742 | 37001 ft | 449 kts | 131° |
| 2026-04-25 13:39 | 46.10082 | 5.90580 | 37004 ft | 450 kts | 131° |
| 2026-04-25 13:40 | 46.05998 | 5.97399 | 37011 ft | 450 kts | 131° |
| 2026-04-25 13:40 | 46.01940 | 6.04165 | 37017 ft | 449 kts | 131° |
| 2026-04-25 13:41 | 45.97852 | 6.10973 | 37012 ft | 449 kts | 131° |
| 2026-04-25 13:41 | 45.93762 | 6.17760 | 37013 ft | 449 kts | 131° |
| 2026-04-25 13:42 | 45.89662 | 6.24539 | 37013 ft | 449 kts | 131° |
| 2026-04-25 13:42 | 45.85558 | 6.31297 | 37001 ft | 449 kts | 131° |
| 2026-04-25 13:43 | 45.81413 | 6.38027 | 36992 ft | 450 kts | 136° |
| 2026-04-25 13:43 | 45.76477 | 6.43534 | 36993 ft | 451 kts | 145° |
| 2026-04-25 13:44 | 45.71360 | 6.48736 | 37003 ft | 451 kts | 144° |
| 2026-04-25 13:44 | 45.66249 | 6.53947 | 36995 ft | 452 kts | 144° |
| 2026-04-25 13:45 | 45.61114 | 6.59160 | 36986 ft | 453 kts | 145° |
| 2026-04-25 13:45 | 45.55950 | 6.64376 | 36993 ft | 456 kts | 145° |
| 2026-04-25 13:46 | 45.50773 | 6.69597 | 37018 ft | 455 kts | 145° |
| 2026-04-25 13:46 | 45.45590 | 6.74815 | 37004 ft | 456 kts | 145° |
| 2026-04-25 13:47 | 45.40431 | 6.80002 | 36994 ft | 458 kts | 145° |
| 2026-04-25 13:47 | 45.35211 | 6.85230 | 37001 ft | 460 kts | 145° |
| 2026-04-25 13:48 | 45.29974 | 6.90469 | 36999 ft | 461 kts | 145° |
| 2026-04-25 13:48 | 45.24942 | 6.96067 | 37015 ft | 460 kts | 135° |
| 2026-04-25 13:49 | 45.20360 | 7.02411 | 37017 ft | 461 kts | 136° |
| 2026-04-25 13:49 | 45.15757 | 7.08725 | 37032 ft | 459 kts | 136° |
| 2026-04-25 13:50 | 45.11194 | 7.15029 | 37043 ft | 456 kts | 132° |
| 2026-04-25 13:50 | 45.07425 | 7.22209 | 37026 ft | 454 kts | 125° |
| 2026-04-25 13:51 | 45.03798 | 7.29524 | 37029 ft | 454 kts | 125° |
| 2026-04-25 13:51 | 45.00162 | 7.36803 | 37033 ft | 452 kts | 125° |
| 2026-04-25 13:52 | 44.96168 | 7.43616 | 37043 ft | 450 kts | 135° |
| 2026-04-25 13:52 | 44.91760 | 7.49775 | 37032 ft | 448 kts | 135° |
| 2026-04-25 13:53 | 44.87336 | 7.55962 | 37029 ft | 447 kts | 135° |
| 2026-04-25 13:53 | 44.82913 | 7.62130 | 37025 ft | 447 kts | 135° |
| 2026-04-25 13:54 | 44.78496 | 7.68277 | 37021 ft | 446 kts | 135° |
| 2026-04-25 13:54 | 44.74073 | 7.74411 | 37018 ft | 446 kts | 135° |
| 2026-04-25 13:55 | 44.69645 | 7.80534 | 37016 ft | 446 kts | 135° |
| 2026-04-25 13:55 | 44.65218 | 7.86644 | 37015 ft | 446 kts | 136° |
| 2026-04-25 13:56 | 44.60786 | 7.92748 | 37013 ft | 446 kts | 135° |
| 2026-04-25 13:56 | 44.56350 | 7.98850 | 37007 ft | 446 kts | 136° |
| 2026-04-25 13:57 | 44.51910 | 8.04941 | 37001 ft | 447 kts | 136° |
| 2026-04-25 13:57 | 44.47461 | 8.11045 | 37000 ft | 448 kts | 136° |
| 2026-04-25 13:58 | 44.43003 | 8.17145 | 37009 ft | 448 kts | 136° |
| 2026-04-25 13:58 | 44.38537 | 8.23224 | 37010 ft | 448 kts | 136° |
| 2026-04-25 13:59 | 44.34067 | 8.29289 | 37013 ft | 448 kts | 136° |
| 2026-04-25 13:59 | 44.29601 | 8.35348 | 37010 ft | 447 kts | 136° |
| 2026-04-25 14:00 | 44.26647 | 8.39354 | 37015 ft | 447 kts | 136° |
| 2026-04-25 14:00 | 44.20670 | 8.47427 | 37024 ft | 446 kts | 136° |
| 2026-04-25 14:01 | 44.16238 | 8.53393 | 37025 ft | 445 kts | 136° |
| 2026-04-25 14:01 | 44.11755 | 8.59421 | 37023 ft | 445 kts | 136° |
| 2026-04-25 14:02 | 44.07326 | 8.65362 | 37020 ft | 444 kts | 136° |
| 2026-04-25 14:02 | 44.02872 | 8.71321 | 37017 ft | 444 kts | 136° |
| 2026-04-25 14:03 | 43.98423 | 8.77274 | 37013 ft | 444 kts | 136° |
| 2026-04-25 14:03 | 43.94723 | 8.82217 | 37011 ft | 444 kts | 136° |
| 2026-04-25 14:04 | 43.90264 | 8.88148 | 37010 ft | 444 kts | 136° |
| 2026-04-25 14:04 | 43.85799 | 8.94061 | 37009 ft | 444 kts | 136° |
| 2026-04-25 14:05 | 43.81332 | 8.99967 | 37008 ft | 444 kts | 136° |
| 2026-04-25 14:05 | 43.76865 | 9.05871 | 37009 ft | 444 kts | 136° |
| 2026-04-25 14:06 | 43.72399 | 9.11773 | 37009 ft | 444 kts | 136° |
| 2026-04-25 14:06 | 43.67922 | 9.17677 | 37010 ft | 444 kts | 136° |
| 2026-04-25 14:07 | 43.63478 | 9.23513 | 37011 ft | 444 kts | 136° |
| 2026-04-25 14:07 | 43.58990 | 9.29378 | 37011 ft | 444 kts | 137° |
| 2026-04-25 14:08 | 43.54503 | 9.35226 | 37011 ft | 444 kts | 136° |
| 2026-04-25 14:08 | 43.50017 | 9.41081 | 37011 ft | 444 kts | 136° |
| 2026-04-25 14:09 | 43.45531 | 9.46938 | 37012 ft | 444 kts | 137° |
| 2026-04-25 14:09 | 43.41038 | 9.52772 | 37012 ft | 444 kts | 137° |
| 2026-04-25 14:10 | 43.36544 | 9.58597 | 37010 ft | 444 kts | 137° |
| 2026-04-25 14:10 | 43.32049 | 9.64412 | 37009 ft | 444 kts | 137° |
| 2026-04-25 14:11 | 43.27554 | 9.70215 | 37009 ft | 444 kts | 137° |
| 2026-04-25 14:11 | 43.23057 | 9.76008 | 37008 ft | 444 kts | 137° |
| 2026-04-25 14:12 | 43.18552 | 9.81803 | 37007 ft | 443 kts | 137° |
| 2026-04-25 14:12 | 43.14042 | 9.87584 | 37006 ft | 444 kts | 137° |
| 2026-04-25 14:13 | 43.09532 | 9.93350 | 37008 ft | 444 kts | 137° |
| 2026-04-25 14:13 | 43.05020 | 9.99115 | 37011 ft | 444 kts | 137° |
| 2026-04-25 14:14 | 43.00498 | 10.04873 | 37012 ft | 444 kts | 137° |
| 2026-04-25 14:14 | 42.96001 | 10.10585 | 37012 ft | 444 kts | 137° |
| 2026-04-25 14:15 | 42.91476 | 10.16332 | 37011 ft | 444 kts | 137° |
| 2026-04-25 14:15 | 42.86950 | 10.22063 | 37009 ft | 444 kts | 137° |
| 2026-04-25 14:16 | 42.82429 | 10.27771 | 37008 ft | 443 kts | 137° |
| 2026-04-25 14:16 | 42.77896 | 10.33491 | 37007 ft | 444 kts | 137° |
| 2026-04-25 14:17 | 42.73363 | 10.39198 | 37008 ft | 444 kts | 137° |
| 2026-04-25 14:17 | 42.69005 | 10.45179 | 37010 ft | 445 kts | 133° |
| 2026-04-25 14:18 | 42.64871 | 10.51438 | 37014 ft | 444 kts | 131° |
| 2026-04-25 14:18 | 42.60774 | 10.57647 | 37015 ft | 444 kts | 132° |
| 2026-04-25 14:19 | 42.56581 | 10.63808 | 37015 ft | 444 kts | 133° |
| 2026-04-25 14:19 | 42.52356 | 10.69921 | 37016 ft | 444 kts | 133° |
| 2026-04-25 14:20 | 42.48129 | 10.76040 | 37018 ft | 444 kts | 133° |
| 2026-04-25 14:20 | 42.43913 | 10.82160 | 37019 ft | 444 kts | 133° |
| 2026-04-25 14:21 | 42.39688 | 10.88282 | 37019 ft | 444 kts | 133° |
| 2026-04-25 14:21 | 42.35458 | 10.94388 | 37019 ft | 444 kts | 133° |
| 2026-04-25 14:22 | 42.31225 | 11.00484 | 37019 ft | 444 kts | 133° |
| 2026-04-25 14:22 | 42.27000 | 11.06571 | 37018 ft | 444 kts | 133° |
| 2026-04-25 14:23 | 42.22767 | 11.12650 | 37017 ft | 444 kts | 133° |
| 2026-04-25 14:23 | 42.18533 | 11.18718 | 37016 ft | 444 kts | 133° |
| 2026-04-25 14:24 | 42.14326 | 11.24742 | 37017 ft | 444 kts | 133° |
| 2026-04-25 14:24 | 42.10088 | 11.30799 | 37019 ft | 444 kts | 133° |
| 2026-04-25 14:25 | 42.05836 | 11.36849 | 37021 ft | 445 kts | 134° |
| 2026-04-25 14:25 | 42.01580 | 11.42891 | 37021 ft | 444 kts | 134° |
| 2026-04-25 14:26 | 41.97329 | 11.48923 | 37021 ft | 444 kts | 134° |
| 2026-04-25 14:26 | 41.93073 | 11.54949 | 37021 ft | 444 kts | 134° |
| 2026-04-25 14:27 | 41.88813 | 11.60968 | 37021 ft | 444 kts | 134° |
| 2026-04-25 14:27 | 41.84556 | 11.66977 | 37020 ft | 444 kts | 134° |
| 2026-04-25 14:28 | 41.80298 | 11.72974 | 37018 ft | 444 kts | 134° |
| 2026-04-25 14:28 | 41.76044 | 11.78964 | 37015 ft | 444 kts | 134° |
| 2026-04-25 14:29 | 41.71798 | 11.84957 | 37014 ft | 444 kts | 134° |
| 2026-04-25 14:29 | 41.67550 | 11.90945 | 37013 ft | 444 kts | 134° |
| 2026-04-25 14:30 | 41.63276 | 11.96904 | 37014 ft | 444 kts | 134° |
| 2026-04-25 14:30 | 41.56847 | 12.05815 | 37017 ft | 444 kts | 134° |
| 2026-04-25 14:31 | 41.52560 | 12.11743 | 37017 ft | 444 kts | 134° |
| 2026-04-25 14:31 | 41.48275 | 12.17676 | 37015 ft | 443 kts | 134° |
| 2026-04-25 14:32 | 41.43993 | 12.23601 | 37013 ft | 443 kts | 134° |
| 2026-04-25 14:32 | 41.39706 | 12.29525 | 37012 ft | 443 kts | 134° |
| 2026-04-25 14:33 | 41.35420 | 12.35426 | 37012 ft | 443 kts | 134° |
| 2026-04-25 14:33 | 41.31129 | 12.41323 | 37011 ft | 443 kts | 134° |
| 2026-04-25 14:34 | 41.26833 | 12.47218 | 37012 ft | 444 kts | 134° |
| 2026-04-25 14:34 | 41.22536 | 12.53109 | 37014 ft | 444 kts | 134° |
| 2026-04-25 14:35 | 41.18399 | 12.59189 | 37015 ft | 444 kts | 130° |
| 2026-04-25 14:35 | 41.14438 | 12.65479 | 37015 ft | 444 kts | 130° |
| 2026-04-25 14:36 | 41.10472 | 12.71756 | 37015 ft | 444 kts | 130° |
| 2026-04-25 14:36 | 41.06474 | 12.77918 | 37013 ft | 443 kts | 131° |
| 2026-04-25 14:37 | 41.02425 | 12.84091 | 37013 ft | 443 kts | 131° |
| 2026-04-25 14:37 | 40.98380 | 12.90269 | 37012 ft | 443 kts | 131° |
| 2026-04-25 14:38 | 40.94344 | 12.96444 | 37012 ft | 443 kts | 131° |
| 2026-04-25 14:38 | 40.90311 | 13.02611 | 37012 ft | 444 kts | 131° |
| 2026-04-25 14:39 | 40.86267 | 13.08778 | 37013 ft | 444 kts | 131° |
| 2026-04-25 14:39 | 40.82212 | 13.14921 | 37014 ft | 444 kts | 131° |
| 2026-04-25 14:40 | 40.78157 | 13.21071 | 37015 ft | 444 kts | 131° |
| 2026-04-25 14:40 | 40.74102 | 13.27217 | 37016 ft | 444 kts | 131° |
| 2026-04-25 14:41 | 40.70044 | 13.33364 | 37016 ft | 444 kts | 131° |
| 2026-04-25 14:41 | 40.65983 | 13.39484 | 37017 ft | 444 kts | 131° |
| 2026-04-25 14:42 | 40.63289 | 13.43534 | 37018 ft | 444 kts | 131° |
| 2026-04-25 14:42 | 40.57859 | 13.51667 | 37019 ft | 444 kts | 131° |
| 2026-04-25 14:43 | 40.53781 | 13.57767 | 37019 ft | 444 kts | 131° |
| 2026-04-25 14:43 | 40.49806 | 13.63985 | 37020 ft | 444 kts | 129° |
| 2026-04-25 14:44 | 40.45971 | 13.70350 | 37020 ft | 444 kts | 128° |
| 2026-04-25 14:44 | 40.42764 | 13.75681 | 37021 ft | 444 kts | 128° |
| 2026-04-25 14:45 | 40.38906 | 13.82017 | 37021 ft | 444 kts | 129° |
| 2026-04-25 14:45 | 40.35019 | 13.88323 | 37022 ft | 444 kts | 129° |
| 2026-04-25 14:46 | 40.31125 | 13.94620 | 37022 ft | 444 kts | 129° |
| 2026-04-25 14:46 | 40.27262 | 14.00873 | 37022 ft | 444 kts | 129° |
| 2026-04-25 14:47 | 40.23997 | 14.06138 | 37022 ft | 444 kts | 129° |
| 2026-04-25 14:47 | 40.19449 | 14.13404 | 37022 ft | 444 kts | 129° |
| 2026-04-25 14:48 | 40.15534 | 14.19660 | 37022 ft | 444 kts | 129° |
| 2026-04-25 14:48 | 40.11640 | 14.25927 | 37021 ft | 444 kts | 129° |
| 2026-04-25 14:49 | 40.07736 | 14.32179 | 37021 ft | 444 kts | 129° |
| 2026-04-25 14:49 | 40.03824 | 14.38425 | 37021 ft | 444 kts | 129° |
| 2026-04-25 14:50 | 39.99914 | 14.44660 | 37020 ft | 444 kts | 129° |
| 2026-04-25 14:50 | 39.96000 | 14.50891 | 37020 ft | 444 kts | 129° |
| 2026-04-25 14:51 | 39.92088 | 14.57112 | 37019 ft | 444 kts | 129° |
| 2026-04-25 14:51 | 39.88179 | 14.63333 | 37019 ft | 444 kts | 129° |
| 2026-04-25 14:52 | 39.84261 | 14.69540 | 37018 ft | 444 kts | 129° |
| 2026-04-25 14:52 | 39.81111 | 14.74807 | 37017 ft | 443 kts | 122° |
| 2026-04-25 14:53 | 39.78018 | 14.83262 | 37015 ft | 443 kts | 113° |
| 2026-04-25 14:53 | 39.75569 | 14.90561 | 37012 ft | 443 kts | 114° |
| 2026-04-25 14:54 | 39.73097 | 14.97895 | 37011 ft | 443 kts | 114° |
| 2026-04-25 14:54 | 39.70606 | 15.05292 | 37011 ft | 443 kts | 114° |
| 2026-04-25 14:55 | 39.68140 | 15.12576 | 37012 ft | 444 kts | 114° |
| 2026-04-25 14:55 | 39.65650 | 15.19913 | 37013 ft | 444 kts | 114° |
| 2026-04-25 14:56 | 39.63163 | 15.27256 | 37015 ft | 444 kts | 114° |
| 2026-04-25 14:56 | 39.60660 | 15.34587 | 37017 ft | 444 kts | 114° |
| 2026-04-25 14:57 | 39.58159 | 15.41904 | 37018 ft | 444 kts | 114° |
| 2026-04-25 14:57 | 39.55655 | 15.49218 | 37018 ft | 444 kts | 114° |
| 2026-04-25 14:58 | 39.53152 | 15.56486 | 37018 ft | 444 kts | 114° |
| 2026-04-25 14:58 | 39.50641 | 15.63792 | 37017 ft | 444 kts | 114° |
| 2026-04-25 14:59 | 39.48129 | 15.71095 | 37017 ft | 444 kts | 114° |
| 2026-04-25 14:59 | 39.45608 | 15.78393 | 37017 ft | 444 kts | 114° |
| 2026-04-25 15:00 | 39.43087 | 15.85682 | 37015 ft | 443 kts | 114° |
| 2026-04-25 15:00 | 39.40560 | 15.92962 | 37014 ft | 443 kts | 114° |
| 2026-04-25 15:01 | 39.38025 | 16.00234 | 37013 ft | 443 kts | 114° |
| 2026-04-25 15:01 | 39.35489 | 16.07490 | 37005 ft | 443 kts | 114° |
| 2026-04-25 15:02 | 39.32948 | 16.14770 | 36988 ft | 445 kts | 114° |
| 2026-04-25 15:02 | 39.30408 | 16.22007 | 36993 ft | 445 kts | 114° |
| 2026-04-25 15:03 | 39.27825 | 16.29335 | 36999 ft | 445 kts | 114° |
| 2026-04-25 15:03 | 39.25260 | 16.36600 | 36993 ft | 445 kts | 114° |
| 2026-04-25 15:04 | 39.22679 | 16.43881 | 36982 ft | 447 kts | 115° |
| 2026-04-25 15:04 | 39.20101 | 16.51145 | 36982 ft | 449 kts | 115° |
| 2026-04-25 15:05 | 39.17499 | 16.58472 | 36986 ft | 450 kts | 115° |
| 2026-04-25 15:06 | 39.13574 | 16.69486 | 36989 ft | 452 kts | 115° |
| 2026-04-25 15:06 | 39.10942 | 16.76835 | 37007 ft | 452 kts | 115° |
| 2026-04-25 15:07 | 39.08299 | 16.84203 | 37009 ft | 457 kts | 115° |
| 2026-04-25 15:07 | 39.05604 | 16.91705 | 37009 ft | 465 kts | 115° |
| 2026-04-25 15:08 | 39.02870 | 16.99286 | 37009 ft | 467 kts | 115° |
| 2026-04-25 15:08 | 39.00132 | 17.06872 | 37009 ft | 468 kts | 114° |
| 2026-04-25 15:09 | 38.98059 | 17.14804 | 37009 ft | 468 kts | 107° |
| 2026-04-25 15:09 | 38.95198 | 17.26797 | 37018 ft | 468 kts | 107° |
| 2026-04-25 15:10 | 38.93278 | 17.34782 | 37019 ft | 467 kts | 107° |
| 2026-04-25 15:11 | 38.90396 | 17.46685 | 37019 ft | 467 kts | 107° |
| 2026-04-25 15:11 | 38.88460 | 17.54644 | 37020 ft | 467 kts | 107° |
| 2026-04-25 15:12 | 38.85546 | 17.66615 | 37022 ft | 468 kts | 107° |
| 2026-04-25 15:12 | 38.84255 | 17.71888 | 37023 ft | 468 kts | 107° |
| 2026-04-25 15:13 | 38.80667 | 17.86462 | 37023 ft | 468 kts | 108° |
| 2026-04-25 15:14 | 38.78691 | 17.94461 | 37021 ft | 467 kts | 108° |
| 2026-04-25 15:14 | 38.76734 | 18.02398 | 37020 ft | 467 kts | 108° |
| 2026-04-25 15:15 | 38.74771 | 18.10295 | 37019 ft | 467 kts | 108° |
| 2026-04-25 15:15 | 38.72791 | 18.18222 | 37018 ft | 467 kts | 108° |
| 2026-04-25 15:16 | 38.70805 | 18.26143 | 37017 ft | 467 kts | 108° |
| 2026-04-25 15:16 | 38.67794 | 18.38009 | 37018 ft | 467 kts | 108° |
| 2026-04-25 15:17 | 38.64765 | 18.49866 | 36907 ft | 467 kts | 108° |
| 2026-04-25 15:17 | 38.63767 | 18.53787 | 36701 ft | 457 kts | 108° |
| 2026-04-25 15:18 | 38.62797 | 18.57592 | 36692 ft | 447 kts | 108° |
| 2026-04-25 15:18 | 38.59897 | 18.68882 | 36694 ft | 443 kts | 108° |
| 2026-04-25 15:19 | 38.58621 | 18.73831 | 36612 ft | 443 kts | 108° |
| 2026-04-25 15:19 | 38.56985 | 18.80171 | 35083 ft | 452 kts | 108° |
| 2026-04-25 15:19 | 38.56000 | 18.83990 | 34457 ft | 450 kts | 108° |
| 2026-04-25 15:20 | 38.55023 | 18.87768 | 33913 ft | 446 kts | 108° |
| 2026-04-25 15:20 | 38.54050 | 18.91513 | 33354 ft | 442 kts | 108° |
| 2026-04-25 15:20 | 38.53094 | 18.95177 | 32796 ft | 439 kts | 108° |
| 2026-04-25 15:20 | 38.52134 | 18.98868 | 32228 ft | 436 kts | 108° |
| 2026-04-25 15:21 | 38.51181 | 19.02535 | 31646 ft | 433 kts | 108° |
| 2026-04-25 15:21 | 38.50233 | 19.06168 | 31083 ft | 431 kts | 108° |
| 2026-04-25 15:21 | 38.49283 | 19.09789 | 30175 ft | 429 kts | 108° |
| 2026-04-25 15:21 | 38.48334 | 19.13393 | 29065 ft | 427 kts | 109° |
| 2026-04-25 15:22 | 38.47390 | 19.16969 | 28051 ft | 422 kts | 109° |
| 2026-04-25 15:22 | 38.46461 | 19.20495 | 27075 ft | 416 kts | 109° |
| 2026-04-25 15:22 | 38.45544 | 19.23984 | 26117 ft | 410 kts | 108° |
| 2026-04-25 15:22 | 38.44642 | 19.27418 | 25151 ft | 404 kts | 109° |
| 2026-04-25 15:23 | 38.43747 | 19.30806 | 24194 ft | 398 kts | 109° |
| 2026-04-25 15:23 | 38.43163 | 19.33007 | 23566 ft | 395 kts | 109° |
| 2026-04-25 15:23 | 38.42025 | 19.37291 | 23058 ft | 374 kts | 109° |
| 2026-04-25 15:23 | 38.41199 | 19.40402 | 22787 ft | 365 kts | 109° |
| 2026-04-25 15:24 | 38.40401 | 19.43397 | 22356 ft | 350 kts | 109° |
| 2026-04-25 15:24 | 38.39630 | 19.46286 | 21912 ft | 338 kts | 109° |
| 2026-04-25 15:24 | 38.39123 | 19.48184 | 21634 ft | 332 kts | 109° |
| 2026-04-25 15:24 | 38.38631 | 19.50035 | 21334 ft | 332 kts | 109° |
| 2026-04-25 15:25 | 38.37638 | 19.53771 | 20759 ft | 333 kts | 109° |
| 2026-04-25 15:25 | 38.36903 | 19.56524 | 20338 ft | 332 kts | 109° |
| 2026-04-25 15:25 | 38.36157 | 19.59306 | 19910 ft | 332 kts | 109° |
| 2026-04-25 15:25 | 38.35409 | 19.62090 | 19479 ft | 331 kts | 109° |
| 2026-04-25 15:26 | 38.34651 | 19.64915 | 18636 ft | 343 kts | 109° |
| 2026-04-25 15:26 | 38.33863 | 19.67848 | 17705 ft | 356 kts | 109° |
| 2026-04-25 15:26 | 38.33065 | 19.70836 | 16750 ft | 356 kts | 107° |
| 2026-04-25 15:26 | 38.32612 | 19.73918 | 15884 ft | 352 kts | 92° |
| 2026-04-25 15:27 | 38.32773 | 19.76994 | 15097 ft | 347 kts | 78° |
| 2026-04-25 15:27 | 38.33410 | 19.79935 | 14276 ft | 343 kts | 73° |
| 2026-04-25 15:27 | 38.34753 | 19.85694 | 12641 ft | 335 kts | 73° |
| 2026-04-25 15:28 | 38.35405 | 19.88521 | 11920 ft | 329 kts | 73° |
| 2026-04-25 15:28 | 38.36033 | 19.91261 | 11456 ft | 315 kts | 73° |
| 2026-04-25 15:28 | 38.36635 | 19.93889 | 11025 ft | 303 kts | 73° |
| 2026-04-25 15:28 | 38.37212 | 19.96417 | 10600 ft | 292 kts | 73° |
| 2026-04-25 15:29 | 38.37778 | 19.98889 | 10187 ft | 290 kts | 73° |
| 2026-04-25 15:29 | 38.38341 | 20.01352 | 10026 ft | 289 kts | 73° |
| 2026-04-25 15:29 | 38.38907 | 20.03823 | 9760 ft | 293 kts | 73° |
| 2026-04-25 15:29 | 38.39449 | 20.06338 | 9336 ft | 293 kts | 80° |
| 2026-04-25 15:30 | 38.39409 | 20.08902 | 8912 ft | 292 kts | 105° |
| 2026-04-25 15:30 | 38.38554 | 20.11216 | 8496 ft | 290 kts | 129° |
| 2026-04-25 15:30 | 38.37052 | 20.12883 | 8074 ft | 288 kts | 152° |
| 2026-04-25 15:30 | 38.35166 | 20.13628 | 7685 ft | 284 kts | 174° |
| 2026-04-25 15:31 | 38.33191 | 20.13786 | 7306 ft | 282 kts | 178° |
| 2026-04-25 15:31 | 38.31243 | 20.13907 | 6918 ft | 280 kts | 178° |
| 2026-04-25 15:31 | 38.29298 | 20.14027 | 6496 ft | 279 kts | 178° |
| 2026-04-25 15:31 | 38.27363 | 20.14148 | 6079 ft | 277 kts | 178° |
| 2026-04-25 15:32 | 38.25466 | 20.14271 | 5680 ft | 276 kts | 177° |
| 2026-04-25 15:32 | 38.23569 | 20.14534 | 5272 ft | 274 kts | 165° |
| 2026-04-25 15:32 | 38.21856 | 20.15569 | 4857 ft | 273 kts | 143° |
| 2026-04-25 15:33 | 38.19832 | 20.19511 | 3997 ft | 270 kts | 109° |
| 2026-04-25 15:33 | 38.19354 | 20.21808 | 3562 ft | 269 kts | 94° |
| 2026-04-25 15:33 | 38.19546 | 20.24151 | 3146 ft | 266 kts | 72° |
| 2026-04-25 15:33 | 38.20424 | 20.26177 | 2956 ft | 260 kts | 49° |
| 2026-04-25 15:34 | 38.21776 | 20.27706 | 2907 ft | 261 kts | 37° |
| 2026-04-25 15:34 | 38.23216 | 20.29122 | 2845 ft | 262 kts | 37° |
| 2026-04-25 15:34 | 38.24646 | 20.30527 | 2784 ft | 252 kts | 37° |
| 2026-04-25 15:34 | 38.25531 | 20.31396 | 2792 ft | 231 kts | 37° |
| 2026-04-25 15:35 | 38.27404 | 20.34796 | 2905 ft | 198 kts | 86° |
| 2026-04-25 15:35 | 38.27173 | 20.36501 | 2774 ft | 196 kts | 115° |
| 2026-04-25 15:35 | 38.26353 | 20.37850 | 2581 ft | 193 kts | 142° |
| 2026-04-25 15:36 | 38.24123 | 20.39724 | 2365 ft | 193 kts | 147° |
| 2026-04-25 15:36 | 38.23000 | 20.40656 | 2265 ft | 193 kts | 147° |
| 2026-04-25 15:36 | 38.21883 | 20.41587 | 2210 ft | 187 kts | 147° |
| 2026-04-25 15:37 | 38.20881 | 20.42424 | 2206 ft | 158 kts | 147° |
| 2026-04-25 15:37 | 38.19983 | 20.43174 | 1944 ft | 151 kts | 147° |
| 2026-04-25 15:37 | 38.19127 | 20.43893 | 1697 ft | 144 kts | 147° |
| 2026-04-25 15:37 | 38.18301 | 20.44585 | 1467 ft | 141 kts | 147° |
| 2026-04-25 15:38 | 38.17485 | 20.45266 | 1259 ft | 140 kts | 147° |
| 2026-04-25 15:38 | 38.16680 | 20.45953 | 1044 ft | 139 kts | 144° |
| 2026-04-25 15:38 | 38.15915 | 20.46705 | 821 ft | 139 kts | 144° |
| 2026-04-25 15:38 | 38.15118 | 20.47392 | 567 ft | 138 kts | 146° |
| 2026-04-25 15:39 | 38.14324 | 20.48064 | 436 ft | 137 kts | 146° |
| 2026-04-25 15:39 | 38.13537 | 20.48753 | 251 ft | 137 kts | 147° |
| 2026-04-25 15:39 | 38.12742 | 20.49421 | 72 ft | 136 kts | 146° |
| 2026-04-25 15:39 | 38.12031 | 20.50022 | 53 ft | 94 kts | 146° |
| 2026-04-25 15:40 | 38.11741 | 20.50273 | 53 ft | 14 kts | 126° |
| 2026-04-25 15:40 | 38.11744 | 20.50329 | 50 ft | 4 kts | 25° |
| 2026-04-25 15:40 | 38.11807 | 20.50365 | 55 ft | 6 kts | 17° |
| 2026-04-25 15:40 | 38.11852 | 20.50340 | 53 ft | 8 kts | 325° |
| 2026-04-25 15:41 | 38.11884 | 20.50367 | 50 ft | 8 kts | 57° |
| 2026-04-25 15:41 | 38.11907 | 20.50412 | 56 ft | 2 kts | 56° |
| 2026-04-25 15:41 | 38.11911 | 20.50419 | 54 ft | 0 kts | 56° |